Diamond, Missouri
Current Conditions -  °F | °C
As of 2:53 PM on Friday 28 Nov 2014 (Local Time) from KJLN Reporting Station
Clear Clear  
Wind Chill: 63°   Ceiling: Unl
Heat Index: 63°   Visibility: 10mi
Dew Point: 34°   Wind: 18mph
Humidity: 34%   Direction: 200°SSW
Pressure: 29.9"   Gusts: 26mph
Location:  37°N, 94.32°W
Report Text: KJLN 282053Z 20016G23KT 10SM CLR 17/01 A2990 RMK AO2 PK WND 20028/1955 SLP124 T01720011 56030
Loading
Personal Weather Stations






























Interactive Weather Map New forecast layout! Learn more

10-Day Weather Forecast

Advertisements
Track Severe Weather on mobile